createdAt,value
2018-06-12T00:02:28.920Z,5.17
2018-06-12T00:04:57.536Z,5.10
2018-06-12T00:07:26.320Z,4.17
2018-06-12T00:09:54.916Z,4.70
2018-06-12T00:12:23.723Z,5.10
2018-06-12T00:14:52.306Z,4.47
2018-06-12T00:17:20.894Z,4.90
2018-06-12T00:19:49.495Z,4.90
2018-06-12T00:22:18.076Z,4.90
2018-06-12T00:24:46.926Z,5.20
2018-06-12T00:27:15.527Z,4.30
2018-06-12T00:29:44.111Z,4.13
2018-06-12T00:32:12.721Z,4.73
2018-06-12T00:34:41.313Z,4.70
2018-06-12T00:37:09.895Z,4.63
2018-06-12T00:39:38.476Z,4.90
2018-06-12T00:42:07.036Z,4.93
2018-06-12T00:44:35.646Z,4.33
2018-06-12T00:47:04.232Z,4.60
2018-06-12T00:49:33.036Z,4.13
2018-06-12T00:52:01.613Z,4.37
2018-06-12T00:54:30.185Z,4.43
2018-06-12T00:57:07.015Z,4.30
2018-06-12T00:59:35.660Z,4.57
2018-06-12T01:02:04.419Z,5.03
2018-06-12T01:04:33.017Z,5.13
2018-06-12T01:07:01.620Z,4.77
2018-06-12T01:09:30.303Z,4.87
2018-06-12T01:11:59.306Z,4.93
2018-06-12T01:14:27.905Z,5.40
2018-06-12T01:16:57.312Z,4.70
2018-06-12T01:19:25.914Z,4.70
2018-06-12T01:21:54.513Z,4.80
2018-06-12T01:24:23.405Z,4.50
2018-06-12T01:26:52.108Z,4.10
2018-06-12T01:29:20.697Z,3.83
2018-06-12T01:31:49.268Z,4.50
2018-06-12T01:34:17.848Z,4.33
2018-06-12T01:36:46.469Z,3.90
2018-06-12T01:39:15.053Z,4.23
2018-06-12T01:41:43.664Z,4.00
2018-06-12T01:44:12.248Z,3.67
2018-06-12T01:46:40.830Z,4.00
2018-06-12T01:49:09.451Z,3.20
2018-06-12T01:51:38.064Z,3.87
2018-06-12T01:54:06.664Z,3.67
2018-06-12T01:56:34.999Z,3.20
2018-06-12T01:59:03.591Z,2.90
2018-06-12T02:01:32.464Z,3.20
2018-06-12T02:04:01.348Z,3.37
2018-06-12T02:06:29.952Z,2.90
2018-06-12T02:08:58.529Z,3.03
2018-06-12T02:11:27.124Z,3.00
2018-06-12T02:13:56.060Z,3.00
2018-06-12T02:16:24.772Z,3.63
2018-06-12T02:18:53.376Z,3.00
2018-06-12T02:21:21.951Z,3.23
2018-06-12T02:23:50.518Z,3.03
2018-06-12T02:26:19.080Z,3.40
2018-06-12T02:28:47.640Z,3.17
2018-06-12T02:31:16.246Z,3.17
2018-06-12T02:33:44.828Z,3.10
2018-06-12T02:36:13.408Z,3.50
2018-06-12T02:38:41.968Z,3.70
2018-06-12T02:41:10.564Z,3.40
2018-06-12T02:43:39.156Z,3.20
2018-06-12T02:46:07.868Z,3.17
2018-06-12T02:48:36.453Z,3.67
2018-06-12T02:51:05.043Z,3.47
2018-06-12T02:53:33.628Z,3.70
2018-06-12T02:56:03.236Z,3.70
2018-06-12T02:58:32.696Z,3.50
2018-06-12T03:01:01.868Z,4.23
2018-06-12T03:03:30.453Z,3.83
2018-06-12T03:05:58.685Z,3.30
2018-06-12T03:08:27.269Z,3.60
2018-06-12T03:10:56.141Z,3.70
2018-06-12T03:13:24.720Z,3.63
2018-06-12T03:15:53.632Z,3.67
2018-06-12T03:18:22.260Z,3.53
2018-06-12T03:20:50.863Z,3.27
2018-06-12T03:23:19.496Z,3.20
2018-06-12T03:25:56.633Z,3.50
2018-06-12T03:28:25.661Z,3.23
2018-06-12T03:30:54.719Z,3.27
2018-06-12T03:33:23.319Z,3.20
2018-06-12T03:35:51.888Z,3.40
2018-06-12T03:38:20.457Z,3.43
2018-06-12T03:40:49.048Z,3.10
2018-06-12T03:43:17.732Z,3.30
2018-06-12T03:45:46.308Z,2.70
2018-06-12T03:48:14.908Z,3.53
2018-06-12T03:50:43.488Z,3.20
2018-06-12T03:53:12.088Z,2.83
2018-06-12T03:55:40.663Z,3.27
2018-06-12T03:58:09.517Z,3.00
2018-06-12T04:00:38.108Z,3.47
2018-06-12T04:03:06.711Z,3.40
2018-06-12T04:05:35.308Z,3.23
2018-06-12T04:08:04.064Z,3.07
2018-06-12T04:10:32.676Z,3.13
2018-06-12T04:13:01.252Z,3.03
2018-06-12T04:15:29.835Z,3.03
2018-06-12T04:17:58.917Z,3.07
2018-06-12T04:20:28.894Z,2.70
2018-06-12T04:22:57.484Z,3.37
2018-06-12T04:25:26.076Z,2.60
2018-06-12T04:27:54.659Z,3.27
2018-06-12T04:30:23.508Z,3.07
2018-06-12T04:32:52.079Z,3.03
2018-06-12T04:35:20.668Z,3.17
2018-06-12T04:37:49.227Z,2.47
2018-06-12T04:40:17.789Z,2.40
2018-06-12T04:42:46.380Z,2.50
2018-06-12T04:45:14.947Z,2.53
2018-06-12T04:47:43.528Z,2.70
2018-06-12T04:50:12.117Z,2.80
2018-06-12T04:52:40.684Z,2.60
2018-06-12T04:55:09.289Z,2.40
2018-06-12T04:57:37.895Z,2.20
2018-06-12T05:00:06.549Z,2.50
2018-06-12T05:02:35.136Z,2.60
2018-06-12T05:05:03.820Z,2.70
2018-06-12T05:07:33.587Z,2.23
2018-06-12T05:10:04.444Z,2.23
2018-06-12T05:12:33.536Z,2.57
2018-06-12T05:15:02.119Z,2.17
2018-06-12T05:17:30.707Z,2.13
2018-06-12T05:19:59.373Z,2.03
2018-06-12T05:22:27.972Z,2.07
2018-06-12T05:24:56.556Z,2.10
2018-06-12T05:27:25.135Z,1.80
2018-06-12T05:29:53.704Z,2.03
2018-06-12T05:32:22.330Z,2.33
2018-06-12T05:34:50.912Z,1.90
2018-06-12T05:37:19.498Z,2.30
2018-06-12T05:39:48.060Z,2.00
2018-06-12T05:42:16.658Z,2.10
2018-06-12T05:44:45.251Z,1.70
2018-06-12T05:47:13.825Z,2.20
2018-06-12T05:49:42.437Z,2.37
2018-06-12T05:52:11.128Z,2.10
2018-06-12T05:54:39.699Z,1.83
2018-06-12T05:57:08.054Z,1.90
2018-06-12T05:59:36.630Z,1.90
2018-06-12T06:02:05.416Z,1.70
2018-06-12T06:04:33.990Z,1.80
2018-06-12T06:07:03.506Z,1.80
2018-06-12T06:09:32.112Z,1.90
2018-06-12T06:12:00.784Z,1.80
2018-06-12T06:14:29.465Z,1.97
2018-06-12T06:16:58.174Z,2.20
2018-06-12T06:19:26.716Z,2.13
2018-06-12T06:21:55.312Z,2.07
2018-06-12T06:24:23.940Z,1.97
2018-06-12T06:26:52.539Z,1.93
2018-06-12T06:29:21.102Z,1.53
2018-06-12T06:31:49.677Z,1.70
2018-06-12T06:34:18.273Z,1.70
2018-06-12T06:36:46.848Z,1.60
2018-06-12T06:39:15.476Z,2.20
2018-06-12T06:41:44.068Z,1.60
2018-06-12T06:44:12.693Z,1.47
2018-06-12T06:46:41.266Z,1.83
2018-06-12T06:49:09.844Z,1.70
2018-06-12T06:51:38.436Z,1.77
2018-06-12T06:54:07.044Z,1.63
2018-06-12T06:56:35.619Z,2.23
2018-06-12T06:59:04.255Z,1.40
2018-06-12T07:01:32.852Z,1.80
2018-06-12T07:04:01.446Z,1.60
2018-06-12T07:06:30.028Z,1.50
2018-06-12T07:08:58.678Z,1.40
2018-06-12T07:11:27.259Z,1.53
2018-06-12T07:13:55.859Z,1.83
2018-06-12T07:16:24.447Z,1.40
2018-06-12T07:18:53.004Z,1.60
2018-06-12T07:21:24.379Z,1.60
2018-06-12T07:23:53.001Z,1.60
2018-06-12T07:26:21.615Z,1.70
2018-06-12T07:28:50.171Z,1.80
2018-06-12T07:31:18.763Z,1.23
2018-06-12T07:33:47.336Z,1.30
2018-06-12T07:36:15.981Z,1.60
2018-06-12T07:38:44.560Z,1.67
2018-06-12T07:41:13.132Z,1.40
2018-06-12T07:43:41.708Z,1.40
2018-06-12T07:46:10.272Z,1.20
2018-06-12T07:48:38.844Z,1.70
2018-06-12T07:51:07.426Z,1.43
2018-06-12T07:53:35.996Z,1.50
2018-06-12T07:56:04.594Z,1.30
2018-06-12T07:58:33.169Z,1.43
2018-06-12T08:01:01.793Z,1.50
2018-06-12T08:03:30.367Z,1.20
2018-06-12T08:05:58.592Z,1.30
2018-06-12T08:08:27.159Z,1.40
2018-06-12T08:10:55.751Z,1.20
2018-06-12T08:13:24.328Z,1.50
2018-06-12T08:15:52.939Z,1.53
2018-06-12T08:18:21.508Z,1.53
2018-06-12T08:20:50.075Z,1.43
2018-06-12T08:23:18.669Z,1.50
2018-06-12T08:25:47.256Z,1.00
2018-06-12T08:28:15.855Z,1.10
2018-06-12T08:30:44.477Z,1.20
2018-06-12T08:33:13.094Z,1.40
2018-06-12T08:35:41.668Z,1.30
2018-06-12T08:38:10.231Z,1.20
2018-06-12T08:40:38.848Z,1.10
2018-06-12T08:43:07.429Z,1.03
2018-06-12T08:45:36.004Z,1.30
2018-06-12T08:48:04.605Z,1.10
2018-06-12T08:50:33.201Z,1.20
2018-06-12T08:53:01.796Z,1.20
2018-06-12T08:55:30.364Z,1.03
2018-06-12T08:57:59.548Z,1.27
2018-06-12T09:00:28.124Z,1.20
2018-06-12T09:02:56.701Z,1.07
2018-06-12T09:05:25.299Z,1.30
2018-06-12T09:07:53.907Z,1.10
2018-06-12T09:10:22.528Z,1.37
2018-06-12T09:12:51.198Z,1.30
2018-06-12T09:15:19.772Z,1.20
2018-06-12T09:17:48.379Z,1.00
2018-06-12T09:20:17.000Z,1.13
2018-06-12T09:22:45.612Z,1.07
2018-06-12T09:25:14.252Z,1.10
2018-06-12T09:27:49.316Z,1.17
2018-06-12T09:30:18.999Z,1.10
2018-06-12T09:32:47.750Z,1.17
2018-06-12T09:35:16.319Z,1.33
2018-06-12T09:37:44.892Z,1.10
2018-06-12T09:40:13.479Z,0.80
2018-06-12T09:42:42.045Z,1.03
2018-06-12T09:45:10.692Z,1.27
2018-06-12T09:47:39.971Z,1.20
2018-06-12T09:50:08.606Z,1.10
2018-06-12T09:52:37.183Z,1.13
2018-06-12T09:55:06.379Z,1.20
2018-06-12T09:57:34.970Z,1.17
2018-06-12T10:00:03.628Z,1.00
2018-06-12T10:02:32.276Z,1.03
2018-06-12T10:05:00.881Z,1.20
2018-06-12T10:07:29.526Z,1.17
2018-06-12T10:09:58.252Z,1.30
2018-06-12T10:12:26.871Z,1.20
2018-06-12T10:14:55.450Z,1.17
2018-06-12T10:17:24.012Z,0.90
2018-06-12T10:19:52.728Z,1.23
2018-06-12T10:22:21.331Z,1.00
2018-06-12T10:24:49.964Z,1.20
2018-06-12T10:27:18.572Z,1.03
2018-06-12T10:29:47.767Z,1.00
2018-06-12T10:32:16.356Z,1.00
2018-06-12T10:34:44.974Z,1.00
2018-06-12T10:37:13.629Z,1.10
2018-06-12T10:39:42.232Z,1.10
2018-06-12T10:42:10.807Z,0.87
2018-06-12T10:44:39.381Z,1.20
2018-06-12T10:47:07.984Z,0.97
2018-06-12T10:49:36.861Z,1.17
2018-06-12T10:52:05.442Z,1.10
2018-06-12T10:54:34.021Z,1.20
2018-06-12T10:57:02.614Z,1.20
2018-06-12T10:59:31.392Z,1.10
2018-06-12T11:02:00.093Z,1.33
2018-06-12T11:04:28.679Z,1.10
2018-06-12T11:06:57.260Z,1.30
2018-06-12T11:09:25.845Z,1.20
2018-06-12T11:11:54.445Z,1.10
2018-06-12T11:14:24.052Z,1.13
2018-06-12T11:16:52.694Z,0.93
2018-06-12T11:19:21.282Z,1.10
2018-06-12T11:21:49.852Z,1.07
2018-06-12T11:24:18.437Z,1.13
2018-06-12T11:26:46.992Z,1.13
2018-06-12T11:29:15.564Z,0.97
2018-06-12T11:31:44.152Z,1.00
2018-06-12T11:34:12.721Z,1.13
2018-06-12T11:36:41.328Z,1.23
2018-06-12T11:39:09.895Z,1.20
2018-06-12T11:41:38.221Z,1.00
2018-06-12T11:44:06.785Z,1.30
2018-06-12T11:46:35.356Z,0.90
2018-06-12T11:49:03.969Z,1.17
2018-06-12T11:51:32.552Z,1.10
2018-06-12T11:54:01.160Z,0.97
2018-06-12T11:56:29.775Z,1.33
2018-06-12T11:58:58.380Z,1.10
2018-06-12T12:01:26.999Z,1.00
2018-06-12T12:03:55.583Z,1.20
2018-06-12T12:06:24.234Z,1.03
2018-06-12T12:08:52.820Z,1.10
2018-06-12T12:11:21.404Z,1.10
2018-06-12T12:13:50.010Z,1.30
2018-06-12T12:16:18.589Z,0.93
2018-06-12T12:18:47.164Z,0.93
2018-06-12T12:21:15.725Z,1.13
2018-06-12T12:23:44.310Z,1.40
2018-06-12T12:26:12.921Z,1.10
2018-06-12T12:28:41.533Z,1.10
2018-06-12T12:31:10.080Z,1.10
2018-06-12T12:33:38.636Z,1.00
2018-06-12T12:36:07.575Z,1.03
2018-06-12T12:38:36.179Z,1.00
2018-06-12T12:41:04.754Z,1.00
2018-06-12T12:43:33.346Z,1.00
2018-06-12T12:46:01.916Z,1.20
2018-06-12T12:48:30.491Z,0.90
2018-06-12T12:50:59.100Z,1.00
2018-06-12T12:53:27.656Z,1.00
2018-06-12T12:55:56.233Z,0.90
2018-06-12T12:58:24.827Z,0.90
2018-06-12T13:00:53.428Z,1.23
2018-06-12T13:03:22.100Z,0.90
2018-06-12T13:05:50.676Z,1.43
2018-06-12T13:08:19.265Z,0.97
2018-06-12T13:10:47.860Z,1.20
2018-06-12T13:13:16.424Z,1.00
2018-06-12T13:15:45.028Z,1.20
2018-06-12T13:18:13.720Z,1.10
2018-06-12T13:20:42.216Z,0.90
2018-06-12T13:23:10.796Z,1.10
2018-06-12T13:25:39.395Z,0.93
2018-06-12T13:28:08.017Z,0.90
2018-06-12T13:30:37.327Z,1.20
2018-06-12T13:33:05.893Z,0.80
2018-06-12T13:35:34.480Z,1.07
2018-06-12T13:38:03.051Z,1.00
2018-06-12T13:40:31.664Z,1.07
2018-06-12T13:43:00.250Z,1.20
2018-06-12T13:45:28.822Z,1.00
2018-06-12T13:47:57.388Z,1.03
2018-06-12T13:50:29.434Z,0.90
2018-06-12T13:53:00.708Z,1.00
2018-06-12T13:55:30.687Z,0.90
2018-06-12T13:58:02.301Z,1.00
2018-06-12T14:00:33.465Z,1.00
2018-06-12T14:03:03.707Z,0.93
2018-06-12T14:05:31.994Z,0.90
2018-06-12T14:08:01.181Z,1.03
2018-06-12T14:10:30.143Z,1.00
2018-06-12T14:12:58.712Z,1.00
2018-06-12T14:15:27.315Z,0.90
2018-06-12T14:17:55.881Z,0.83
2018-06-12T14:20:24.465Z,1.03
2018-06-12T14:22:53.059Z,0.87
2018-06-12T14:25:21.633Z,1.40
2018-06-12T14:27:50.238Z,1.07
2018-06-12T14:30:18.815Z,1.00
2018-06-12T14:32:47.400Z,0.90
2018-06-12T14:35:16.024Z,1.03
2018-06-12T14:37:44.826Z,1.20
2018-06-12T14:40:13.431Z,0.87
2018-06-12T14:42:41.998Z,0.80
2018-06-12T14:45:11.161Z,0.80
2018-06-12T14:47:39.748Z,0.90
2018-06-12T14:50:08.340Z,0.90
2018-06-12T14:52:36.937Z,0.90
2018-06-12T14:55:05.552Z,0.90
2018-06-12T14:57:34.141Z,0.90
2018-06-12T15:00:03.478Z,0.80
2018-06-12T15:02:32.259Z,0.90
2018-06-12T15:05:00.856Z,0.97
2018-06-12T15:07:29.481Z,1.07
2018-06-12T15:09:58.069Z,1.17
2018-06-12T15:12:26.673Z,1.10
2018-06-12T15:14:55.257Z,0.90
2018-06-12T15:17:23.852Z,0.73
2018-06-12T15:19:52.444Z,1.03
2018-06-12T15:22:21.040Z,0.80
2018-06-12T15:24:49.645Z,0.70
2018-06-12T15:27:18.237Z,0.90
2018-06-12T15:29:46.856Z,0.90
2018-06-12T15:32:15.421Z,0.80
2018-06-12T15:34:43.992Z,0.90
2018-06-12T15:37:12.723Z,0.90
2018-06-12T15:39:41.391Z,0.87
2018-06-12T15:42:10.035Z,0.83
2018-06-12T15:44:38.878Z,0.80
2018-06-12T15:47:07.544Z,1.00
2018-06-12T15:49:36.732Z,0.90
2018-06-12T15:52:05.926Z,1.00
2018-06-12T15:54:35.476Z,1.03
2018-06-12T15:57:05.388Z,0.90
2018-06-12T15:59:35.943Z,1.07
2018-06-12T16:02:05.348Z,1.00
2018-06-12T16:04:35.319Z,1.40
2018-06-12T16:07:03.991Z,0.90
2018-06-12T16:09:38.416Z,0.87
2018-06-12T16:12:07.037Z,0.97
2018-06-12T16:14:36.559Z,0.80
2018-06-12T16:17:08.208Z,1.03
2018-06-12T16:19:38.340Z,0.97
2018-06-12T16:22:06.963Z,1.10
2018-06-12T16:24:35.866Z,1.30
2018-06-12T16:27:05.109Z,1.00
2018-06-12T16:29:33.850Z,1.10
2018-06-12T16:32:03.241Z,0.93
2018-06-12T16:34:33.675Z,0.90
2018-06-12T16:37:02.628Z,1.10
2018-06-12T16:39:31.504Z,1.10
2018-06-12T16:42:00.112Z,1.20
2018-06-12T16:44:28.720Z,1.00
2018-06-12T16:46:57.308Z,0.70
2018-06-12T16:49:25.885Z,1.10
2018-06-12T16:51:54.476Z,0.90
2018-06-12T16:54:23.055Z,0.73
2018-06-12T16:56:51.712Z,0.80
2018-06-12T16:59:20.314Z,0.80
2018-06-12T17:01:48.928Z,1.00
2018-06-12T17:04:17.543Z,0.70
2018-06-12T17:06:45.804Z,0.70
2018-06-12T17:09:14.475Z,0.50
2018-06-12T17:11:43.113Z,0.80
2018-06-12T17:14:11.712Z,1.00
2018-06-12T17:16:40.898Z,1.00
2018-06-12T17:19:09.528Z,0.90
2018-06-12T17:21:38.179Z,0.70
2018-06-12T17:24:06.797Z,0.80
2018-06-12T17:26:35.421Z,0.73
2018-06-12T17:29:04.002Z,0.60
2018-06-12T17:31:33.437Z,0.90
2018-06-12T17:34:02.115Z,0.80
2018-06-12T17:36:30.762Z,0.70
2018-06-12T17:38:59.382Z,0.80
2018-06-12T17:41:27.947Z,0.57
2018-06-12T17:43:56.540Z,0.70
2018-06-12T17:46:25.130Z,0.90
2018-06-12T17:48:53.720Z,0.70
2018-06-12T17:51:22.316Z,0.60
2018-06-12T17:53:50.892Z,0.70
2018-06-12T17:56:19.472Z,0.60
2018-06-12T17:58:48.152Z,0.57
2018-06-12T18:01:16.727Z,0.70
2018-06-12T18:03:45.296Z,1.00
2018-06-12T18:06:13.881Z,0.70
2018-06-12T18:08:42.459Z,0.70
2018-06-12T18:11:11.059Z,0.60
2018-06-12T18:13:42.701Z,0.60
2018-06-12T18:16:11.351Z,0.70
2018-06-12T18:18:39.927Z,0.60
2018-06-12T18:21:08.504Z,0.70
2018-06-12T18:23:36.851Z,0.60
2018-06-12T18:26:05.455Z,0.70
2018-06-12T18:28:34.300Z,0.50
2018-06-12T18:31:02.876Z,0.50
2018-06-12T18:33:31.462Z,0.50
2018-06-12T18:36:00.152Z,0.70
2018-06-12T18:38:29.034Z,0.70
2018-06-12T18:40:57.663Z,0.60
2018-06-12T18:43:26.235Z,0.60
2018-06-12T18:45:55.282Z,0.70
2018-06-12T18:48:23.847Z,0.50
2018-06-12T18:50:52.413Z,0.60
2018-06-12T18:53:21.004Z,0.60
2018-06-12T18:55:49.572Z,0.43
2018-06-12T18:58:18.168Z,0.70
2018-06-12T19:00:46.767Z,0.60
2018-06-12T19:03:15.345Z,0.53
2018-06-12T19:05:43.952Z,0.67
2018-06-12T19:08:12.545Z,0.80
2018-06-12T19:10:41.403Z,0.40
2018-06-12T19:13:09.988Z,1.00
2018-06-12T19:15:38.616Z,0.60
2018-06-12T19:18:07.200Z,0.40
2018-06-12T19:20:36.732Z,0.63
2018-06-12T19:23:05.319Z,0.60
2018-06-12T19:25:33.876Z,0.60
2018-06-12T19:28:03.462Z,0.60
2018-06-12T19:30:32.063Z,0.60
2018-06-12T19:33:00.698Z,0.80
2018-06-12T19:35:29.282Z,0.60
2018-06-12T19:37:57.868Z,0.60
2018-06-12T19:40:26.456Z,0.50
2018-06-12T19:42:55.119Z,0.90
2018-06-12T19:45:23.704Z,0.60
2018-06-12T19:47:52.355Z,0.60
2018-06-12T19:50:20.910Z,0.50
2018-06-12T19:52:49.515Z,0.87
2018-06-12T19:55:17.779Z,1.13
2018-06-12T19:57:47.164Z,1.90
2018-06-12T20:00:15.817Z,1.97
2018-06-12T20:02:44.368Z,1.80
2018-06-12T20:05:13.532Z,1.40
2018-06-12T20:07:42.147Z,1.10
2018-06-12T20:10:11.112Z,1.10
2018-06-12T20:12:39.719Z,1.00
2018-06-12T20:15:08.312Z,0.80
2018-06-12T20:17:36.886Z,1.00
2018-06-12T20:20:05.612Z,0.97
2018-06-12T20:22:34.211Z,0.77
2018-06-12T20:25:02.856Z,0.90
2018-06-12T20:27:31.747Z,0.80
2018-06-12T20:30:00.401Z,0.67
2018-06-12T20:32:29.014Z,0.60
2018-06-12T20:34:57.604Z,0.80
2018-06-12T20:38:55.596Z,0.57
2018-06-12T20:41:24.198Z,0.80
2018-06-12T20:43:52.795Z,0.70
2018-06-12T20:46:21.380Z,0.40
2018-06-12T20:48:50.009Z,0.73
2018-06-12T20:51:19.200Z,0.60
2018-06-12T20:53:47.830Z,0.87
2018-06-12T20:56:17.332Z,0.60
2018-06-12T20:58:45.945Z,0.70
2018-06-12T21:01:14.751Z,0.60
2018-06-12T21:03:43.363Z,0.70
2018-06-12T21:06:12.018Z,0.67
2018-06-12T21:08:40.689Z,0.80
2018-06-12T21:11:09.274Z,0.67
2018-06-12T21:13:38.361Z,0.50
2018-06-12T21:16:06.938Z,0.73
2018-06-12T21:18:35.548Z,0.77
2018-06-12T21:21:04.188Z,0.63
2018-06-12T21:23:32.777Z,0.60
2018-06-12T21:26:01.108Z,0.70
2018-06-12T21:28:30.182Z,0.67
2018-06-12T21:30:58.808Z,0.80
2018-06-12T21:33:27.431Z,0.70
2018-06-12T21:35:56.024Z,0.60
2018-06-12T21:38:24.609Z,0.70
2018-06-12T21:40:53.204Z,0.57
2018-06-12T21:43:21.807Z,0.73
2018-06-12T21:45:50.376Z,0.70
2018-06-12T21:48:19.016Z,0.40
2018-06-12T21:50:47.581Z,0.70
2018-06-12T21:53:16.172Z,0.60
2018-06-12T21:55:44.782Z,0.60
2018-06-12T21:58:13.364Z,0.60
2018-06-12T22:00:41.966Z,0.60
2018-06-12T22:03:10.847Z,0.70
2018-06-12T22:05:39.992Z,0.80
2018-06-12T22:08:08.636Z,0.60
2018-06-12T22:10:37.220Z,0.70
2018-06-12T22:13:06.291Z,0.60
2018-06-12T22:15:34.878Z,0.70
2018-06-12T22:18:03.679Z,0.80
2018-06-12T22:20:32.280Z,0.70
2018-06-12T22:23:00.904Z,0.53
2018-06-12T22:25:29.488Z,0.50
2018-06-12T22:27:58.097Z,0.50
2018-06-12T22:30:26.684Z,0.50
2018-06-12T22:32:55.268Z,0.60
2018-06-12T22:35:25.000Z,0.50
2018-06-12T22:37:53.634Z,0.50
2018-06-12T22:40:22.197Z,0.70
2018-06-12T22:42:50.779Z,0.60
2018-06-12T22:45:19.355Z,0.50
2018-06-12T22:47:47.951Z,0.50
2018-06-12T22:50:16.527Z,0.50
2018-06-12T22:52:45.100Z,0.67
2018-06-12T22:55:13.335Z,0.80
2018-06-12T22:57:41.978Z,0.67
2018-06-12T23:00:11.287Z,0.70
2018-06-12T23:02:39.866Z,0.50
2018-06-12T23:05:08.437Z,0.60
2018-06-12T23:07:37.240Z,0.60
2018-06-12T23:10:05.864Z,0.70
2018-06-12T23:12:34.460Z,0.70
2018-06-12T23:15:03.048Z,0.87
2018-06-12T23:17:31.700Z,0.80
2018-06-12T23:20:12.248Z,0.63
2018-06-12T23:22:40.826Z,0.60
2018-06-12T23:25:09.441Z,0.70
2018-06-12T23:27:38.032Z,0.80
2018-06-12T23:30:06.371Z,0.53
2018-06-12T23:32:35.653Z,0.50
2018-06-12T23:35:04.249Z,0.63
2018-06-12T23:37:33.336Z,0.67
2018-06-12T23:40:02.456Z,0.83
2018-06-12T23:42:31.044Z,0.70
2018-06-12T23:44:59.617Z,0.70
2018-06-12T23:47:28.181Z,0.60
2018-06-12T23:49:56.887Z,0.67
2018-06-12T23:52:25.457Z,0.70
2018-06-12T23:54:54.044Z,0.60
2018-06-12T23:57:22.648Z,0.70
2018-06-12T23:59:51.235Z,1.03
